Terminal Aerodrome Forecast
Issued by NWS

Home | Current Version | Previous Version | Text Only | Print | Product List | Glossary Off
Versions: 1 2 3 4 5 6 7 8 9 10 11 12 13 14 15 16 17 18 19 20 21 22

000
FTUS43 KGRB 211500 AAA
TAFCWA
TAF AMD
KCWA 211557Z 2116/2212 14009KT 1 1/2SM BR OVC004
      TEMPO 2116/2120 3SM -FZDZSN OVC008
     FM212000 15010KT 3SM -SN BR OVC012
      TEMPO 2123/2203 1 1/2SM -SN
     FM220800 13010KT 3SM -FZDZSN BR OVC009=

USA.gov is the U.S. government's official web portal to all federal, state and local government web resources and services.